Terminal Aerodrome Forecast
Issued by NWS

Home | Current Version | Previous Version | Text Only | Print | Product List | Glossary On
Versions: 1 2 3 4 5 6 7 8 9 10 11 12 13 14 15
000
FTUS45 KTFX 251742
TAFBZN
TAF
KBZN 251742Z 2518/2618 VRB05KT P6SM SCT060 SCT120
     FM252100 05006KT P6SM VCSH SCT060 BKN120
     FM260500 15006KT P6SM VCSH SCT050 BKN090 PROB30 2607/2612 -SHRA
      BKN050=

USA.gov is the U.S. government's official web portal to all federal, state and local government web resources and services.